createdAt,value
2023-04-18T00:02:15.353Z,11.47
2023-04-18T00:04:46.160Z,11.43
2023-04-18T00:07:17.246Z,11.36
2023-04-18T00:09:45.615Z,11.25
2023-04-18T00:12:13.634Z,11.26
2023-04-18T00:14:41.936Z,11.26
2023-04-18T00:17:10.321Z,11.42
2023-04-18T00:19:43.241Z,11.45
2023-04-18T00:22:11.555Z,11.33
2023-04-18T00:24:41.242Z,11.31
2023-04-18T00:27:09.244Z,11.33
2023-04-18T00:29:37.616Z,11.35
2023-04-18T00:32:06.096Z,11.14
2023-04-18T00:34:34.444Z,11.13
2023-04-18T00:37:02.426Z,11.08
2023-04-18T00:39:30.665Z,11.18
2023-04-18T00:42:01.471Z,11.14
2023-04-18T00:44:29.738Z,11.00
2023-04-18T00:46:58.816Z,11.06
2023-04-18T00:49:27.996Z,10.98
2023-04-18T00:51:57.095Z,11.10
2023-04-18T00:54:25.548Z,11.04
2023-04-18T00:56:53.570Z,11.13
2023-04-18T00:59:23.245Z,11.04
2023-04-18T01:01:51.310Z,11.01
2023-04-18T01:04:19.692Z,10.86
2023-04-18T01:06:47.949Z,10.83
2023-04-18T01:09:16.361Z,10.89
2023-04-18T01:11:46.093Z,10.81
2023-04-18T01:14:14.539Z,10.86
2023-04-18T01:16:44.113Z,10.84
2023-04-18T01:19:12.925Z,10.76
2023-04-18T01:21:43.604Z,10.71
2023-04-18T01:24:17.297Z,10.59
2023-04-18T01:26:47.495Z,10.64
2023-04-18T01:29:16.190Z,10.56
2023-04-18T01:31:44.350Z,10.51
2023-04-18T01:34:12.841Z,10.55
2023-04-18T01:36:42.975Z,10.47
2023-04-18T01:39:13.111Z,10.50
2023-04-18T01:41:42.588Z,10.49
2023-04-18T01:44:11.776Z,10.29
2023-04-18T01:46:40.804Z,10.30
2023-04-18T01:49:09.499Z,10.16
2023-04-18T01:51:38.861Z,10.36
2023-04-18T01:54:07.156Z,10.48
2023-04-18T01:56:35.204Z,10.50
2023-04-18T01:59:05.258Z,10.51
2023-04-18T02:01:33.333Z,10.43
2023-04-18T02:04:01.700Z,10.45
2023-04-18T02:06:29.755Z,10.42
2023-04-18T02:08:57.965Z,10.38
2023-04-18T02:11:26.357Z,10.29
2023-04-18T02:13:54.664Z,10.41
2023-04-18T02:16:24.101Z,10.33
2023-04-18T02:18:52.791Z,10.40
2023-04-18T02:21:21.808Z,10.22
2023-04-18T02:23:50.925Z,10.38
2023-04-18T02:26:18.943Z,10.42
2023-04-18T02:28:47.201Z,10.48
2023-04-18T02:31:15.717Z,10.39
2023-04-18T02:33:47.095Z,10.25
2023-04-18T02:36:15.081Z,10.33
2023-04-18T02:38:44.890Z,10.30
2023-04-18T02:41:17.247Z,10.33
2023-04-18T02:43:45.525Z,10.27
2023-04-18T02:46:15.560Z,10.34
2023-04-18T02:48:47.499Z,10.37
2023-04-18T02:51:17.171Z,10.37
2023-04-18T02:53:45.501Z,10.30
2023-04-18T02:56:16.791Z,10.22
2023-04-18T02:59:05.056Z,10.24
2023-04-18T03:01:56.192Z,10.25
2023-04-18T03:04:26.782Z,10.26
2023-04-18T03:07:01.253Z,10.20
2023-04-18T03:09:32.832Z,10.20
2023-04-18T03:12:06.538Z,10.25
2023-04-18T03:14:37.946Z,10.15
2023-04-18T03:17:06.790Z,10.07
2023-04-18T03:19:43.088Z,9.88
2023-04-18T03:22:14.879Z,9.83
2023-04-18T03:24:50.029Z,10.02
2023-04-18T03:27:19.318Z,10.05
2023-04-18T03:29:48.734Z,9.83
2023-04-18T03:32:17.236Z,10.06
2023-04-18T03:34:47.302Z,9.99
2023-04-18T03:37:15.382Z,10.01
2023-04-18T03:39:49.491Z,9.84
2023-04-18T03:42:17.965Z,9.99
2023-04-18T03:44:46.353Z,9.84
2023-04-18T03:47:15.447Z,9.94
2023-04-18T03:49:47.374Z,9.77
2023-04-18T03:52:16.203Z,9.71
2023-04-18T03:54:44.634Z,9.73
2023-04-18T03:57:13.591Z,9.50
2023-04-18T03:59:42.781Z,9.74
2023-04-18T04:02:12.593Z,9.83
2023-04-18T04:04:41.084Z,9.73
2023-04-18T04:07:13.161Z,9.80
2023-04-18T04:09:41.434Z,9.76
2023-04-18T04:12:09.443Z,9.63
2023-04-18T04:14:37.886Z,9.60
2023-04-18T04:17:06.664Z,9.49
2023-04-18T04:19:35.756Z,9.49
2023-04-18T04:22:10.393Z,9.40
2023-04-18T04:24:40.420Z,9.27
2023-04-18T04:27:08.716Z,9.16
2023-04-18T04:29:39.297Z,9.36
2023-04-18T04:32:08.364Z,9.29
2023-04-18T04:34:41.187Z,9.09
2023-04-18T04:37:13.867Z,9.09
2023-04-18T04:39:53.769Z,9.13
2023-04-18T04:42:38.748Z,8.99
2023-04-18T04:45:13.761Z,8.98
2023-04-18T04:47:41.963Z,9.03
2023-04-18T04:50:14.579Z,9.12
2023-04-18T04:52:42.851Z,9.12
2023-04-18T04:55:12.576Z,9.07
2023-04-18T04:57:42.411Z,9.20
2023-04-18T05:00:31.650Z,9.23
2023-04-18T05:02:59.844Z,9.08
2023-04-18T05:05:28.912Z,9.44
2023-04-18T05:07:56.991Z,9.28
2023-04-18T05:10:26.602Z,9.28
2023-04-18T05:12:54.584Z,9.19
2023-04-18T05:15:23.632Z,9.27
2023-04-18T05:17:51.718Z,9.41
2023-04-18T05:20:20.055Z,9.62
2023-04-18T05:22:48.173Z,9.64
2023-04-18T05:25:16.656Z,9.73
2023-04-18T05:27:46.242Z,9.76
2023-04-18T05:30:14.924Z,9.74
2023-04-18T05:32:43.124Z,9.84
2023-04-18T05:35:11.705Z,9.98
2023-04-18T05:37:39.693Z,10.03
2023-04-18T05:40:09.846Z,10.02
2023-04-18T05:42:37.818Z,10.05
2023-04-18T05:45:08.657Z,9.84
2023-04-18T05:47:36.662Z,9.84
2023-04-18T05:50:05.709Z,10.04
2023-04-18T05:52:33.974Z,10.01
2023-04-18T05:55:02.221Z,10.01
2023-04-18T05:57:30.214Z,10.14
2023-04-18T05:59:58.706Z,10.29
2023-04-18T06:02:28.163Z,10.27
2023-04-18T06:04:57.533Z,10.33
2023-04-18T06:07:26.064Z,10.28
2023-04-18T06:09:54.384Z,10.27
2023-04-18T06:12:22.340Z,10.17
2023-04-18T06:14:50.764Z,10.21
2023-04-18T06:17:19.172Z,10.28
2023-04-18T06:19:48.990Z,10.30
2023-04-18T06:22:17.046Z,10.26
2023-04-18T06:24:45.745Z,10.30
2023-04-18T06:27:27.781Z,10.30
2023-04-18T06:29:59.220Z,10.31
2023-04-18T06:32:27.297Z,10.30
2023-04-18T06:34:56.871Z,10.25
2023-04-18T06:37:25.170Z,10.15
2023-04-18T06:39:53.482Z,10.19
2023-04-18T06:42:22.597Z,10.19
2023-04-18T06:44:51.190Z,10.18
2023-04-18T06:47:19.391Z,10.16
2023-04-18T06:49:48.143Z,10.15
2023-04-18T06:52:17.513Z,10.27
2023-04-18T06:54:45.734Z,10.28
2023-04-18T06:57:14.032Z,10.29
2023-04-18T06:59:42.342Z,10.22
2023-04-18T07:02:10.389Z,10.29
2023-04-18T07:04:38.822Z,10.23
2023-04-18T07:07:06.989Z,10.28
2023-04-18T07:09:36.554Z,10.32
2023-04-18T07:12:04.694Z,10.39
2023-04-18T07:14:34.226Z,10.35
2023-04-18T07:17:02.582Z,10.21
2023-04-18T07:19:30.964Z,10.21
2023-04-18T07:21:59.015Z,10.32
2023-04-18T07:24:27.290Z,10.61
2023-04-18T07:26:56.709Z,10.67
2023-04-18T07:29:25.007Z,10.74
2023-04-18T07:31:53.013Z,10.73
2023-04-18T07:34:21.968Z,10.79
2023-04-18T07:36:50.224Z,10.88
2023-04-18T07:39:18.490Z,11.19
2023-04-18T07:41:46.674Z,11.19
2023-04-18T07:44:16.396Z,11.12
2023-04-18T07:46:44.599Z,11.30
2023-04-18T07:49:13.231Z,11.25
2023-04-18T07:51:41.696Z,11.21
2023-04-18T07:54:11.023Z,11.26
2023-04-18T07:56:39.019Z,11.04
2023-04-18T07:59:07.240Z,11.01
2023-04-18T08:01:36.597Z,11.05
2023-04-18T08:04:05.137Z,11.23
2023-04-18T08:06:34.559Z,11.15
2023-04-18T08:09:05.702Z,11.27
2023-04-18T08:11:33.934Z,11.28
2023-04-18T08:14:02.447Z,11.50
2023-04-18T08:16:30.546Z,11.64
2023-04-18T08:19:00.138Z,11.60
2023-04-18T08:21:28.178Z,11.64
2023-04-18T08:23:56.955Z,11.70
2023-04-18T08:26:24.973Z,11.64
2023-04-18T08:28:53.198Z,11.70
2023-04-18T08:31:21.312Z,11.64
2023-04-18T08:33:49.690Z,11.64
2023-04-18T08:36:19.055Z,11.72
2023-04-18T08:38:47.484Z,11.69
2023-04-18T08:41:16.682Z,11.87
2023-04-18T08:43:48.692Z,11.89
2023-04-18T08:46:17.451Z,11.90
2023-04-18T08:48:47.253Z,11.88
2023-04-18T08:51:15.366Z,11.89
2023-04-18T08:53:45.294Z,11.90
2023-04-18T08:56:14.634Z,12.16
2023-04-18T08:58:45.072Z,12.28
2023-04-18T09:01:13.725Z,12.46
2023-04-18T09:03:44.016Z,12.54
2023-04-18T09:06:13.886Z,12.62
2023-04-18T09:08:43.664Z,12.69
2023-04-18T09:11:29.750Z,12.85
2023-04-18T09:13:58.631Z,12.96
2023-04-18T09:16:29.167Z,12.98
2023-04-18T09:19:11.931Z,12.98
2023-04-18T09:21:41.771Z,12.93
2023-04-18T09:24:24.000Z,12.98
2023-04-18T09:26:55.832Z,12.78
2023-04-18T09:29:24.608Z,12.81
2023-04-18T09:31:57.501Z,12.78
2023-04-18T09:34:26.349Z,12.90
2023-04-18T09:37:08.225Z,12.96
2023-04-18T09:39:37.979Z,13.06
2023-04-18T09:42:07.890Z,13.14
2023-04-18T09:44:36.137Z,13.20
2023-04-18T09:47:04.182Z,13.44
2023-04-18T09:49:32.448Z,13.52
2023-04-18T09:52:00.711Z,13.63
2023-04-18T09:54:30.856Z,13.65
2023-04-18T09:56:59.180Z,13.76
2023-04-18T09:59:38.718Z,13.79
2023-04-18T10:02:07.956Z,13.85
2023-04-18T10:04:37.042Z,14.01
2023-04-18T10:07:05.798Z,14.11
2023-04-18T10:09:35.333Z,14.25
2023-04-18T10:12:03.807Z,14.35
2023-04-18T10:14:34.369Z,14.38
2023-04-18T10:17:02.501Z,14.45
2023-04-18T10:19:31.752Z,14.41
2023-04-18T10:22:01.622Z,14.56
2023-04-18T10:24:49.935Z,14.60
2023-04-18T10:27:19.405Z,14.47
2023-04-18T10:29:50.579Z,14.58
2023-04-18T10:32:20.339Z,14.62
2023-04-18T10:34:48.698Z,14.80
2023-04-18T10:37:18.745Z,14.96
2023-04-18T10:39:57.160Z,14.98
2023-04-18T10:42:58.789Z,15.17
2023-04-18T10:45:30.892Z,15.27
2023-04-18T10:48:24.629Z,15.25
2023-04-18T10:51:14.958Z,15.48
2023-04-18T10:53:48.398Z,15.62
2023-04-18T10:56:17.216Z,15.71
2023-04-18T10:58:49.616Z,15.83
2023-04-18T11:01:31.038Z,16.04
2023-04-18T11:04:00.901Z,16.18
2023-04-18T11:06:31.108Z,16.26
2023-04-18T11:09:10.881Z,16.25
2023-04-18T11:11:39.211Z,16.20
2023-04-18T11:14:07.208Z,16.18
2023-04-18T11:16:37.370Z,16.10
2023-04-18T11:19:20.072Z,16.11
2023-04-18T11:21:48.448Z,16.10
2023-04-18T11:24:23.673Z,16.00
2023-04-18T11:26:55.591Z,15.85
2023-04-18T11:29:23.846Z,15.86
2023-04-18T11:31:56.886Z,15.78
2023-04-18T11:34:30.122Z,15.71
2023-04-18T11:36:58.652Z,15.55
2023-04-18T11:39:26.940Z,15.67
2023-04-18T11:41:57.132Z,15.64
2023-04-18T11:44:25.800Z,15.61
2023-04-18T11:46:55.739Z,15.61
2023-04-18T11:49:27.917Z,15.58
2023-04-18T11:51:56.555Z,15.56
2023-04-18T11:54:37.876Z,15.59
2023-04-18T11:57:06.927Z,15.59
2023-04-18T11:59:36.261Z,15.48
2023-04-18T12:02:16.331Z,15.59
2023-04-18T12:04:53.878Z,15.63
2023-04-18T12:07:37.039Z,15.49
2023-04-18T12:10:07.475Z,15.49
2023-04-18T12:12:36.847Z,15.56
2023-04-18T12:15:08.858Z,15.52
2023-04-18T12:17:39.278Z,15.48
2023-04-18T12:20:09.977Z,15.48
2023-04-18T12:22:39.909Z,15.41
2023-04-18T12:25:26.706Z,15.36
2023-04-18T12:27:58.736Z,15.39
2023-04-18T12:30:28.729Z,15.36
2023-04-18T12:32:59.823Z,15.39
2023-04-18T12:35:28.556Z,15.29
2023-04-18T12:37:57.768Z,15.31
2023-04-18T12:40:26.710Z,15.32
2023-04-18T12:42:55.768Z,15.42
2023-04-18T12:45:24.507Z,15.56
2023-04-18T12:47:53.423Z,15.76
2023-04-18T12:50:24.171Z,15.77
2023-04-18T12:52:53.439Z,15.81
2023-04-18T12:55:22.590Z,15.85
2023-04-18T12:57:54.109Z,15.75
2023-04-18T13:00:23.613Z,15.85
2023-04-18T13:02:52.694Z,16.00
2023-04-18T13:05:25.002Z,16.06
2023-04-18T13:08:08.698Z,16.15
2023-04-18T13:10:42.490Z,16.15
2023-04-18T13:13:10.832Z,16.20
2023-04-18T13:15:39.157Z,16.14
2023-04-18T13:18:08.025Z,16.12
2023-04-18T13:20:37.645Z,16.14
2023-04-18T13:23:06.159Z,16.08
2023-04-18T13:25:34.265Z,16.06
2023-04-18T13:28:02.567Z,16.02
2023-04-18T13:30:31.664Z,15.89
2023-04-18T13:33:00.068Z,15.79
2023-04-18T13:35:28.182Z,15.89
2023-04-18T13:37:58.092Z,15.82
2023-04-18T13:40:26.396Z,15.95
2023-04-18T13:42:54.781Z,15.93
2023-04-18T13:45:42.705Z,15.96
2023-04-18T13:48:11.098Z,15.94
2023-04-18T13:50:39.210Z,15.92
2023-04-18T13:53:08.976Z,15.98
2023-04-18T13:55:37.154Z,15.97
2023-04-18T13:58:05.957Z,15.97
2023-04-18T14:00:35.125Z,16.05
2023-04-18T14:03:03.480Z,16.11
2023-04-18T14:05:32.590Z,16.14
2023-04-18T14:08:03.671Z,16.18
2023-04-18T14:10:33.089Z,16.16
2023-04-18T14:13:01.842Z,16.16
2023-04-18T14:15:30.577Z,16.21
2023-04-18T14:17:59.257Z,16.19
2023-04-18T14:20:34.054Z,16.24
2023-04-18T14:23:02.437Z,16.30
2023-04-18T14:25:30.765Z,16.94
2023-04-18T14:28:08.669Z,17.47
2023-04-18T14:30:36.906Z,18.44
2023-04-18T14:33:05.665Z,18.40
2023-04-18T14:35:34.221Z,17.83
2023-04-18T14:38:02.570Z,17.70
2023-04-18T14:40:32.748Z,17.49
2023-04-18T14:43:01.434Z,17.50
2023-04-18T14:45:32.992Z,18.19
2023-04-18T14:48:01.468Z,18.73
2023-04-18T14:50:29.510Z,18.81
2023-04-18T14:52:57.937Z,18.71
2023-04-18T14:55:26.658Z,18.54
2023-04-18T14:57:55.413Z,18.49
2023-04-18T15:00:23.782Z,18.30
2023-04-18T15:02:53.582Z,18.18
2023-04-18T15:05:23.650Z,17.97
2023-04-18T15:07:52.671Z,17.73
2023-04-18T15:10:22.343Z,17.59
2023-04-18T15:12:52.281Z,17.46
2023-04-18T15:15:20.876Z,17.47
2023-04-18T15:17:49.263Z,18.94
2023-04-18T15:20:18.731Z,19.61
2023-04-18T15:22:47.014Z,21.13
2023-04-18T15:25:16.294Z,22.53
2023-04-18T15:27:44.582Z,24.27
2023-04-18T15:30:13.226Z,25.68
2023-04-18T15:32:41.989Z,26.74
2023-04-18T15:35:10.604Z,26.70
2023-04-18T15:37:40.396Z,25.82
2023-04-18T15:40:11.186Z,24.51
2023-04-18T15:42:40.060Z,23.37
2023-04-18T15:45:08.829Z,22.56
2023-04-18T15:47:37.240Z,21.61
2023-04-18T15:50:06.974Z,21.01
2023-04-18T15:52:36.051Z,20.54
2023-04-18T15:55:06.232Z,20.12
2023-04-18T15:57:34.885Z,19.79
2023-04-18T16:00:04.212Z,19.43
2023-04-18T16:02:33.598Z,19.39
2023-04-18T16:05:01.658Z,19.18
2023-04-18T16:07:30.040Z,18.97
2023-04-18T16:09:58.150Z,18.89
2023-04-18T16:12:29.359Z,19.34
2023-04-18T16:14:57.414Z,19.47
2023-04-18T16:17:25.661Z,19.22
2023-04-18T16:19:54.166Z,19.01
2023-04-18T16:22:22.695Z,19.72
2023-04-18T16:24:51.195Z,21.07
2023-04-18T16:27:19.528Z,21.68
2023-04-18T16:29:49.435Z,21.31
2023-04-18T16:32:17.655Z,20.89
2023-04-18T16:34:45.910Z,20.31
2023-04-18T16:37:14.325Z,19.97
2023-04-18T16:39:42.446Z,19.86
2023-04-18T16:42:11.053Z,19.41
2023-04-18T16:44:40.279Z,19.29
2023-04-18T16:47:10.143Z,19.42
2023-04-18T16:49:38.719Z,19.43
2023-04-18T16:52:06.976Z,19.25
2023-04-18T16:54:35.047Z,19.41
2023-04-18T16:57:03.427Z,18.97
2023-04-18T16:59:31.737Z,18.69
2023-04-18T17:02:00.311Z,18.35
2023-04-18T17:04:30.013Z,18.22
2023-04-18T17:06:59.034Z,18.01
2023-04-18T17:09:27.450Z,17.79
2023-04-18T17:11:55.920Z,17.66
2023-04-18T17:14:23.938Z,17.28
2023-04-18T17:16:53.760Z,17.25
2023-04-18T17:19:23.720Z,17.12
2023-04-18T17:21:53.398Z,17.25
2023-04-18T17:24:22.435Z,17.07
2023-04-18T17:26:51.221Z,16.91
2023-04-18T17:29:19.424Z,16.79
2023-04-18T17:31:48.162Z,16.73
2023-04-18T17:34:16.268Z,16.70
2023-04-18T17:36:44.643Z,16.60
2023-04-18T17:39:16.413Z,16.47
2023-04-18T17:41:46.099Z,16.31
2023-04-18T17:44:14.079Z,16.24
2023-04-18T17:46:42.312Z,16.01
2023-04-18T17:49:11.202Z,16.07
2023-04-18T17:51:39.506Z,16.02
2023-04-18T17:54:08.069Z,16.07
2023-04-18T17:56:37.662Z,15.97
2023-04-18T17:59:07.329Z,15.85
2023-04-18T18:01:36.253Z,15.72
2023-04-18T18:04:04.401Z,15.52
2023-04-18T18:06:32.700Z,15.37
2023-04-18T18:09:00.726Z,15.40
2023-04-18T18:11:29.028Z,15.43
2023-04-18T18:13:58.693Z,15.42
2023-04-18T18:16:27.004Z,15.36
2023-04-18T18:18:55.153Z,15.28
2023-04-18T18:21:23.513Z,15.09
2023-04-18T18:23:51.494Z,15.06
2023-04-18T18:26:19.705Z,14.96
2023-04-18T18:28:47.746Z,14.84
2023-04-18T18:31:19.609Z,14.78
2023-04-18T18:33:47.613Z,14.72
2023-04-18T18:36:15.902Z,14.70
2023-04-18T18:38:43.950Z,14.61
2023-04-18T18:41:12.181Z,14.67
2023-04-18T18:43:40.229Z,14.70
2023-04-18T18:46:08.898Z,14.63
2023-04-18T18:48:39.072Z,14.66
2023-04-18T18:51:07.310Z,14.56
2023-04-18T18:53:36.460Z,14.50
2023-04-18T18:56:06.070Z,14.55
2023-04-18T18:58:34.049Z,14.50
2023-04-18T19:01:03.242Z,14.47
2023-04-18T19:03:31.436Z,14.30
2023-04-18T19:06:03.761Z,14.23
2023-04-18T19:08:31.758Z,14.12
2023-04-18T19:11:00.045Z,14.06
2023-04-18T19:13:28.113Z,14.11
2023-04-18T19:15:56.470Z,14.26
2023-04-18T19:18:24.604Z,14.18
2023-04-18T19:20:52.810Z,14.13
2023-04-18T19:23:23.779Z,14.08
2023-04-18T19:25:52.759Z,14.01
2023-04-18T19:28:22.507Z,14.13
2023-04-18T19:30:50.996Z,13.98
2023-04-18T19:33:19.688Z,14.09
2023-04-18T19:35:47.908Z,14.00
2023-04-18T19:38:15.924Z,14.10
2023-04-18T19:40:45.505Z,14.04
2023-04-18T19:43:13.643Z,14.02
2023-04-18T19:45:42.035Z,13.98
2023-04-18T19:48:10.071Z,13.87
2023-04-18T19:50:40.134Z,13.81
2023-04-18T19:53:08.501Z,13.68
2023-04-18T19:55:38.363Z,13.76
2023-04-18T19:58:07.740Z,13.62
2023-04-18T20:00:36.159Z,13.68
2023-04-18T20:03:04.712Z,13.57
2023-04-18T20:05:33.115Z,13.48
2023-04-18T20:08:01.122Z,13.57
2023-04-18T20:10:29.814Z,13.39
2023-04-18T20:12:57.779Z,13.52
2023-04-18T20:17:58.434Z,13.47
2023-04-18T20:20:26.879Z,13.44
2023-04-18T20:22:56.731Z,13.30
2023-04-18T20:25:24.950Z,13.46
2023-04-18T20:27:52.973Z,13.45
2023-04-18T20:30:21.938Z,13.47
2023-04-18T20:32:51.484Z,13.49
2023-04-18T20:35:22.050Z,13.49
2023-04-18T20:37:50.151Z,13.45
2023-04-18T20:40:18.613Z,13.30
2023-04-18T20:42:46.734Z,13.33
2023-04-18T20:45:15.137Z,13.31
2023-04-18T20:47:44.332Z,13.27
2023-04-18T20:50:16.091Z,13.15
2023-04-18T20:52:44.136Z,13.13
2023-04-18T20:55:12.953Z,13.13
2023-04-18T20:57:41.028Z,13.14
2023-04-18T21:00:10.576Z,13.12
2023-04-18T21:02:38.806Z,13.14
2023-04-18T21:05:07.848Z,13.13
2023-04-18T21:07:37.722Z,13.09
2023-04-18T21:10:06.778Z,13.06
2023-04-18T21:12:35.359Z,13.02
2023-04-18T21:15:05.421Z,13.11
2023-04-18T21:17:33.455Z,13.13
2023-04-18T21:20:02.212Z,13.14
2023-04-18T21:22:32.282Z,13.11
2023-04-18T21:25:01.868Z,13.10
2023-04-18T21:27:30.887Z,13.04
2023-04-18T21:29:59.184Z,13.10
2023-04-18T21:32:27.250Z,13.25
2023-04-18T21:34:56.247Z,13.26
2023-04-18T21:37:25.027Z,13.20
2023-04-18T21:39:53.262Z,13.16
2023-04-18T21:42:22.995Z,13.09
2023-04-18T21:44:51.381Z,12.97
2023-04-18T21:47:19.486Z,12.92
2023-04-18T21:49:47.779Z,12.95
2023-04-18T21:52:15.773Z,12.88
2023-04-18T21:54:44.013Z,12.83
2023-04-18T21:57:12.013Z,12.75
2023-04-18T21:59:41.563Z,12.72
2023-04-18T22:02:09.600Z,12.73
2023-04-18T22:04:37.980Z,12.67
2023-04-18T22:07:06.577Z,12.70
2023-04-18T22:09:36.129Z,12.65
2023-04-18T22:12:04.446Z,12.63
2023-04-18T22:14:32.999Z,12.60
2023-04-18T22:17:03.091Z,12.57
2023-04-18T22:19:31.381Z,12.57
2023-04-18T22:21:59.697Z,12.50
2023-04-18T22:24:27.894Z,12.44
2023-04-18T22:26:55.835Z,12.52
2023-04-18T22:29:24.075Z,12.51
2023-04-18T22:31:52.033Z,12.52
2023-04-18T22:34:21.636Z,12.42
2023-04-18T22:36:49.668Z,12.49
2023-04-18T22:39:17.892Z,12.49
2023-04-18T22:41:45.848Z,12.47
2023-04-18T22:44:14.392Z,12.44
2023-04-18T22:46:42.869Z,12.44
2023-04-18T22:49:11.180Z,12.41
2023-04-18T22:51:40.527Z,12.39
2023-04-18T22:54:08.772Z,12.38
2023-04-18T22:56:36.750Z,12.36
2023-04-18T22:59:05.010Z,12.33
2023-04-18T23:01:33.006Z,12.30
2023-04-18T23:04:01.544Z,12.32
2023-04-18T23:06:29.897Z,12.32
2023-04-18T23:08:59.609Z,12.27
2023-04-18T23:11:27.548Z,12.15
2023-04-18T23:13:55.759Z,12.16
2023-04-18T23:16:23.827Z,12.08
2023-04-18T23:18:52.131Z,12.12
2023-04-18T23:21:20.234Z,11.95
2023-04-18T23:23:48.471Z,12.03
2023-04-18T23:26:17.873Z,12.07
2023-04-18T23:28:46.244Z,12.02
2023-04-18T23:31:14.350Z,12.09
2023-04-18T23:33:42.592Z,12.10
2023-04-18T23:36:11.654Z,12.00
2023-04-18T23:38:40.410Z,11.81
2023-04-18T23:41:08.495Z,11.87
2023-04-18T23:43:38.144Z,11.91
2023-04-18T23:46:06.404Z,11.91
2023-04-18T23:48:34.650Z,11.91
2023-04-18T23:51:02.664Z,11.99
2023-04-18T23:53:30.874Z,11.95
2023-04-18T23:55:58.897Z,11.94
2023-04-18T23:58:27.245Z,11.91
